»·PEaware :: N188DD KTOA-KRNM

N188DD :: KTOA-KRNM

FLIGHT INFORMATION

Flight Status: Arrived
Operator: Privately registered:
United States
More flights under this callsign
Pilot: Craig S. (31220)
Aircraft: SOCATA TBM-900
(TBM9)
More flights by this aircraft type
Origin: KTOA Zamperini
United States
Destination: KRNM Ramona
United States
More flights between these airports :: More routes between these airports
Route: LIMBO V64 SLI V23 OCN V208 JLI
File this flight plan on PilotEdge
Remarks:
Altitude:
(Current/Filed)
9,000ft
Speed:
(Current/Filed)
200kts
Departed: 20-Oct-20 04:33 PM
Arrived: 20-Oct-20 05:15 PM
Distance/Time
Traveled:
85nm/0:41
Distance/Time
To Go:
Arrived

Flight Plot

Page will automatically refresh every two minutes.


Map Options




Map Legend


Flown Route
Filed Route
Departure Airport
Arrival Airport
Navaid (VOR, NDB)
Fix

Horizontal Profiles

Position Reports

Time Latitude Longitude Heading Altitude Ground
Speed
20-Oct-20 16:15 33.803347 -118.344051 39 101ft 0kts
20-Oct-20 16:16 33.803347 -118.344051 39 101ft 0kts
20-Oct-20 16:17 33.803347 -118.344051 39 101ft 0kts
20-Oct-20 16:18 33.803347 -118.344051 39 101ft 0kts
20-Oct-20 16:19 33.803347 -118.344051 39 101ft 0kts
20-Oct-20 16:20 33.803347 -118.344051 39 101ft 0kts
20-Oct-20 16:21 33.803347 -118.344051 39 101ft 0kts
20-Oct-20 16:22 33.803347 -118.344051 39 101ft 0kts
20-Oct-20 16:23 33.803347 -118.344051 39 101ft 0kts
20-Oct-20 16:23 33.803347 -118.344051 39 101ft 0kts
20-Oct-20 16:25 33.803347 -118.344051 39 101ft 0kts
20-Oct-20 16:25 33.803347 -118.344051 39 101ft 0kts
20-Oct-20 16:27 33.803171 -118.343465 127 102ft 6kts
20-Oct-20 16:27 33.801718 -118.341289 129 104ft 12kts
20-Oct-20 16:29 33.798845 -118.336914 129 106ft 14kts
20-Oct-20 16:29 33.798009 -118.334370 39 105ft 9kts
20-Oct-20 16:30 33.799077 -118.333338 37 100ft 0kts
20-Oct-20 16:31 33.799948 -118.333443 310 99ft 28kts
20-Oct-20 16:32 33.816336 -118.357871 299 1542ft 119kts
20-Oct-20 16:33 33.834622 -118.396703 272 3407ft 150kts
20-Oct-20 16:34 33.801627 -118.428408 212 5272ft 165kts
20-Oct-20 16:35 33.760450 -118.433247 118 6975ft 181kts
20-Oct-20 16:36 33.763901 -118.373516 82 8575ft 183kts
20-Oct-20 16:37 33.768128 -118.310023 84 8999ft 200kts
20-Oct-20 16:38 33.769577 -118.241677 117 8969ft 211kts
20-Oct-20 16:39 33.735539 -118.184725 121 8992ft 212kts
20-Oct-20 16:40 33.704289 -118.124349 122 8990ft 213kts
20-Oct-20 16:41 33.672842 -118.064029 122 8990ft 213kts
20-Oct-20 16:42 33.640548 -118.002228 122 9000ft 230kts
20-Oct-20 16:43 33.605416 -117.935094 122 8993ft 242kts
20-Oct-20 16:44 33.569102 -117.865831 122 8991ft 245kts
20-Oct-20 16:45 33.532683 -117.796518 122 8991ft 246kts
20-Oct-20 16:46 33.495289 -117.725496 122 8995ft 260kts
20-Oct-20 16:47 33.447527 -117.659112 135 8992ft 267kts
20-Oct-20 16:48 33.394285 -117.596864 135 8991ft 267kts
20-Oct-20 16:49 33.340664 -117.534289 135 8991ft 267kts
20-Oct-20 16:50 33.287447 -117.472288 135 8991ft 267kts
20-Oct-20 16:51 33.239424 -117.405918 100 8965ft 266kts
20-Oct-20 16:52 33.228285 -117.318153 97 8976ft 267kts
20-Oct-20 16:53 33.218517 -117.229961 97 8978ft 267kts
20-Oct-20 16:54 33.208028 -117.141659 97 8981ft 268kts
20-Oct-20 16:55 33.197439 -117.053132 97 8983ft 269kts
20-Oct-20 16:56 33.177680 -116.968320 103 8975ft 268kts
20-Oct-20 16:57 33.174704 -116.885532 91 8463ft 241kts
20-Oct-20 16:58 33.166111 -116.808435 98 7983ft 221kts
20-Oct-20 16:59 33.158052 -116.739234 98 7982ft 199kts
20-Oct-20 17:00 33.150733 -116.675870 98 7987ft 188kts
20-Oct-20 17:01 33.143745 -116.615086 98 7988ft 184kts
20-Oct-20 17:02 33.135262 -116.554737 101 7986ft 184kts
20-Oct-20 17:03 33.139405 -116.498955 20 7985ft 180kts
20-Oct-20 17:04 33.152623 -116.536709 251 7985ft 169kts
20-Oct-20 17:05 33.136578 -116.589811 245 7988ft 171kts
20-Oct-20 17:06 33.115913 -116.645284 248 6998ft 187kts
20-Oct-20 17:07 33.100503 -116.695514 251 5888ft 148kts
20-Oct-20 17:08 33.088284 -116.737237 251 5063ft 112kts
20-Oct-20 17:09 33.078314 -116.771711 253 5104ft 111kts
20-Oct-20 17:10 33.068245 -116.808694 247 4814ft 129kts
20-Oct-20 17:11 33.043762 -116.839482 229 3359ft 122kts
20-Oct-20 17:12 33.033147 -116.868892 270 2418ft 95kts
20-Oct-20 17:13 33.036621 -116.898393 278 1621ft 85kts
20-Oct-20 17:14 33.039177 -116.912435 6 1391ft 0kts
20-Oct-20 17:15 33.039197 -116.912432 6 1391ft 0kts
20-Oct-20 17:16 33.039877 -116.911501 116 1394ft 8kts
20-Oct-20 17:17 33.039820 -116.911351 113 1394ft 0kts
20-Oct-20 17:18 33.039820 -116.911351 113 1394ft 0kts

Navigation Log

Ident Type
Flight plan parsing failed, navigation log unavailable